createdAt,value
2022-12-25T00:01:07.553Z,40.80
2022-12-25T00:03:48.830Z,39.00
2022-12-25T00:06:19.007Z,42.00
2022-12-25T00:08:47.889Z,42.00
2022-12-25T00:11:19.040Z,41.60
2022-12-25T00:13:48.954Z,40.80
2022-12-25T00:16:20.258Z,38.00
2022-12-25T00:18:50.602Z,43.80
2022-12-25T00:21:21.156Z,38.70
2022-12-25T00:23:54.450Z,39.20
2022-12-25T00:26:24.754Z,37.60
2022-12-25T00:28:54.601Z,41.40
2022-12-25T00:31:24.965Z,37.90
2022-12-25T00:33:54.005Z,36.70
2022-12-25T00:36:23.917Z,38.30
2022-12-25T00:38:52.918Z,39.80
2022-12-25T00:41:37.586Z,36.40
2022-12-25T00:44:06.673Z,38.50
2022-12-25T00:46:35.815Z,37.10
2022-12-25T00:49:04.814Z,40.50
2022-12-25T00:51:33.752Z,36.30
2022-12-25T00:54:02.819Z,37.80
2022-12-25T00:56:31.677Z,38.70
2022-12-25T00:59:00.524Z,40.00
2022-12-25T01:01:29.528Z,36.00
2022-12-25T01:03:59.747Z,37.60
2022-12-25T01:06:28.614Z,38.60
2022-12-25T01:09:16.492Z,38.90
2022-12-25T01:11:45.656Z,40.10
2022-12-25T01:14:14.863Z,44.10
2022-12-25T01:16:43.995Z,43.20
2022-12-25T01:19:12.996Z,39.30
2022-12-25T01:21:41.851Z,42.70
2022-12-25T01:24:10.723Z,36.80
2022-12-25T01:26:39.630Z,41.80
2022-12-25T01:29:08.658Z,40.70
2022-12-25T01:31:37.565Z,38.50
2022-12-25T01:34:06.402Z,42.10
2022-12-25T01:36:35.243Z,43.80
2022-12-25T01:39:04.937Z,43.80
2022-12-25T01:41:34.297Z,41.90
2022-12-25T01:44:06.877Z,40.10
2022-12-25T01:46:36.297Z,41.70
2022-12-25T01:49:08.031Z,38.00
2022-12-25T01:51:39.907Z,38.90
2022-12-25T01:54:12.896Z,41.70
2022-12-25T01:56:43.820Z,40.20
2022-12-25T01:59:16.909Z,40.20
2022-12-25T02:01:46.889Z,38.50
2022-12-25T02:04:37.944Z,41.30
2022-12-25T02:07:09.695Z,38.90
2022-12-25T02:09:38.621Z,39.60
2022-12-25T02:12:12.302Z,38.60
2022-12-25T02:14:41.283Z,36.70
2022-12-25T02:17:19.953Z,34.90
2022-12-25T02:20:13.574Z,35.00
2022-12-25T02:22:56.942Z,36.50
2022-12-25T02:25:43.092Z,36.30
2022-12-25T02:28:19.871Z,38.90
2022-12-25T02:30:56.303Z,35.80
2022-12-25T02:33:50.201Z,37.80
2022-12-25T02:36:23.245Z,33.90
2022-12-25T02:39:16.774Z,36.00
2022-12-25T02:41:48.127Z,34.80
2022-12-25T02:44:39.087Z,34.20
2022-12-25T02:47:28.468Z,33.60
2022-12-25T02:50:17.252Z,33.00
2022-12-25T02:53:05.911Z,34.40
2022-12-25T02:56:00.571Z,36.90
2022-12-25T02:58:48.853Z,37.10
2022-12-25T03:01:41.512Z,32.20
2022-12-25T03:04:32.927Z,33.80
2022-12-25T03:07:07.989Z,32.10
2022-12-25T03:09:58.729Z,32.70
2022-12-25T03:12:38.305Z,33.30
2022-12-25T03:15:28.471Z,31.50
2022-12-25T03:17:59.220Z,33.40
2022-12-25T03:20:46.910Z,33.70
2022-12-25T03:23:38.401Z,32.70
2022-12-25T03:26:26.763Z,31.40
2022-12-25T03:28:55.605Z,31.80
2022-12-25T03:31:32.680Z,36.30
2022-12-25T03:34:31.451Z,32.60
2022-12-25T03:37:29.046Z,35.50
2022-12-25T03:40:39.015Z,35.10
2022-12-25T03:43:37.595Z,37.10
2022-12-25T03:46:29.177Z,36.40
2022-12-25T03:49:23.710Z,27.60
2022-12-25T03:52:12.633Z,27.40
2022-12-25T03:55:02.428Z,29.90
2022-12-25T03:57:53.314Z,27.20
2022-12-25T04:00:40.578Z,24.90
2022-12-25T04:03:27.946Z,21.20
2022-12-25T04:06:15.092Z,18.60
2022-12-25T04:09:02.230Z,30.00
2022-12-25T04:11:49.357Z,27.30
2022-12-25T04:14:36.644Z,25.70
2022-12-25T04:17:23.850Z,28.60
2022-12-25T04:20:11.166Z,26.60
2022-12-25T04:22:58.658Z,26.50
2022-12-25T04:25:45.717Z,25.50
2022-12-25T04:28:32.902Z,25.10
2022-12-25T04:31:20.382Z,24.30
2022-12-25T04:34:07.541Z,23.50
2022-12-25T04:36:36.394Z,24.50
2022-12-25T04:39:05.377Z,22.30
2022-12-25T04:41:34.355Z,20.70
2022-12-25T04:44:03.331Z,20.60
2022-12-25T04:46:32.329Z,21.60
2022-12-25T04:49:01.278Z,19.00
2022-12-25T04:51:30.277Z,17.10
2022-12-25T04:53:59.146Z,16.70
2022-12-25T04:56:28.334Z,21.10
2022-12-25T04:58:57.390Z,20.30
2022-12-25T05:01:26.381Z,23.30
2022-12-25T05:03:55.381Z,18.80
2022-12-25T05:06:24.306Z,19.20
2022-12-25T05:08:53.217Z,20.70
2022-12-25T05:11:22.445Z,20.10
2022-12-25T05:13:51.434Z,20.00
2022-12-25T05:16:21.294Z,19.30
2022-12-25T05:18:51.238Z,20.70
2022-12-25T05:21:20.667Z,18.80
2022-12-25T05:23:51.490Z,22.10
2022-12-25T05:26:22.523Z,19.30
2022-12-25T05:28:52.028Z,21.40
2022-12-25T05:31:21.149Z,17.40
2022-12-25T05:33:51.194Z,20.40
2022-12-25T05:36:20.239Z,19.40
2022-12-25T05:38:50.038Z,17.90
2022-12-25T05:41:19.553Z,13.70
2022-12-25T05:43:48.382Z,17.00
2022-12-25T05:46:17.367Z,16.40
2022-12-25T05:48:46.207Z,19.60
2022-12-25T05:51:15.622Z,15.70
2022-12-25T05:53:44.695Z,15.60
2022-12-25T05:56:13.692Z,15.50
2022-12-25T05:58:42.624Z,13.10
2022-12-25T06:01:13.456Z,12.80
2022-12-25T06:03:42.547Z,15.80
2022-12-25T06:06:12.240Z,14.20
2022-12-25T06:08:41.758Z,15.60
2022-12-25T06:11:12.353Z,16.10
2022-12-25T06:13:41.680Z,15.30
2022-12-25T06:16:12.181Z,13.60
2022-12-25T06:18:43.596Z,15.30
2022-12-25T06:21:14.586Z,15.50
2022-12-25T06:23:44.037Z,15.60
2022-12-25T06:26:15.250Z,15.80
2022-12-25T06:28:44.224Z,15.10
2022-12-25T06:31:16.195Z,13.00
2022-12-25T06:33:45.748Z,15.70
2022-12-25T06:36:16.601Z,15.00
2022-12-25T06:38:45.893Z,12.50
2022-12-25T06:41:17.191Z,15.10
2022-12-25T06:43:49.160Z,13.70
2022-12-25T06:46:18.728Z,15.50
2022-12-25T06:48:49.005Z,14.70
2022-12-25T06:51:19.295Z,13.20
2022-12-25T06:53:48.316Z,13.80
2022-12-25T06:56:20.673Z,14.70
2022-12-25T06:58:51.054Z,14.90
2022-12-25T07:01:23.503Z,15.70
2022-12-25T07:03:55.437Z,15.30
2022-12-25T07:06:24.410Z,14.80
2022-12-25T07:08:53.618Z,14.30
2022-12-25T07:11:23.256Z,16.80
2022-12-25T07:13:52.123Z,15.90
2022-12-25T07:16:21.499Z,16.30
2022-12-25T07:18:50.512Z,16.80
2022-12-25T07:21:21.250Z,17.30
2022-12-25T07:23:50.978Z,17.20
2022-12-25T07:26:20.466Z,18.00
2022-12-25T07:28:49.318Z,16.80
2022-12-25T07:31:19.075Z,17.20
2022-12-25T07:33:48.157Z,19.30
2022-12-25T07:36:17.006Z,19.20
2022-12-25T07:38:49.633Z,17.60
2022-12-25T07:41:18.640Z,18.90
2022-12-25T07:43:51.303Z,16.10
2022-12-25T07:46:21.338Z,16.30
2022-12-25T07:48:51.213Z,16.00
2022-12-25T07:51:20.146Z,19.40
2022-12-25T07:53:49.151Z,18.80
2022-12-25T07:56:21.129Z,19.40
2022-12-25T07:58:51.099Z,16.70
2022-12-25T08:01:22.519Z,17.70
2022-12-25T08:03:53.052Z,18.50
2022-12-25T08:06:26.268Z,17.20
2022-12-25T08:08:55.282Z,19.60
2022-12-25T08:11:24.144Z,19.50
2022-12-25T08:13:52.987Z,18.20
2022-12-25T08:16:22.233Z,19.60
2022-12-25T08:18:51.198Z,16.40
2022-12-25T08:21:20.290Z,16.90
2022-12-25T08:23:49.271Z,17.20
2022-12-25T08:26:19.931Z,16.80
2022-12-25T08:28:49.759Z,17.60
2022-12-25T08:31:21.245Z,16.40
2022-12-25T08:33:53.059Z,16.20
2022-12-25T08:36:22.211Z,15.00
2022-12-25T08:38:53.478Z,15.80
2022-12-25T08:41:24.465Z,15.40
2022-12-25T08:43:53.451Z,16.00
2022-12-25T08:46:22.574Z,14.60
2022-12-25T08:48:51.525Z,14.50
2022-12-25T08:51:22.467Z,15.20
2022-12-25T08:53:52.920Z,12.40
2022-12-25T08:56:21.965Z,14.00
2022-12-25T08:58:50.822Z,15.30
2022-12-25T09:01:19.803Z,12.80
2022-12-25T09:03:48.731Z,11.80
2022-12-25T09:06:17.783Z,10.80
2022-12-25T09:08:49.532Z,10.60
2022-12-25T09:11:20.100Z,12.90
2022-12-25T09:13:49.432Z,14.10
2022-12-25T09:16:20.986Z,13.60
2022-12-25T09:18:50.720Z,13.40
2022-12-25T09:21:20.194Z,11.70
2022-12-25T09:23:49.384Z,12.70
2022-12-25T09:26:19.690Z,14.60
2022-12-25T09:28:51.771Z,15.30
2022-12-25T09:31:22.925Z,15.80
2022-12-25T09:33:55.517Z,12.90
2022-12-25T09:36:25.111Z,12.20
2022-12-25T09:38:54.236Z,12.80
2022-12-25T09:41:29.831Z,11.30
2022-12-25T09:44:03.783Z,12.20
2022-12-25T09:46:41.069Z,10.60
2022-12-25T09:49:19.622Z,12.30
2022-12-25T09:51:53.216Z,12.30
2022-12-25T09:54:39.858Z,11.40
2022-12-25T09:57:12.165Z,11.20
2022-12-25T09:59:43.538Z,12.10
2022-12-25T10:02:42.815Z,11.70
2022-12-25T10:05:35.710Z,13.00
2022-12-25T10:08:16.118Z,11.60
2022-12-25T10:10:58.660Z,11.80
2022-12-25T10:13:55.383Z,12.70
2022-12-25T10:19:09.525Z,9.00
2022-12-25T10:21:39.331Z,8.40
2022-12-25T10:24:20.608Z,7.20
2022-12-25T10:26:51.158Z,5.20
2022-12-25T10:29:20.656Z,6.40
2022-12-25T10:31:54.748Z,6.20
2022-12-25T10:34:24.606Z,6.40
2022-12-25T10:36:53.488Z,4.40
2022-12-25T10:39:25.049Z,3.90
2022-12-25T10:42:28.573Z,5.00
2022-12-25T10:44:59.885Z,3.70
2022-12-25T10:47:31.768Z,2.80
2022-12-25T10:50:01.872Z,2.80
2022-12-25T10:52:30.831Z,2.40
2022-12-25T10:55:10.086Z,4.00
2022-12-25T10:57:46.051Z,2.90
2022-12-25T11:00:23.478Z,1.90
2022-12-25T11:02:52.780Z,2.40
2022-12-25T11:05:28.119Z,1.80
2022-12-25T11:07:59.502Z,2.50
2022-12-25T11:10:30.653Z,1.40
2022-12-25T11:13:00.964Z,3.10
2022-12-25T11:15:37.673Z,1.40
2022-12-25T11:18:19.738Z,2.80
2022-12-25T11:20:54.124Z,1.80
2022-12-25T11:23:25.192Z,2.40
2022-12-25T11:25:58.605Z,1.30
2022-12-25T11:28:29.491Z,2.10
2022-12-25T11:31:01.085Z,1.70
2022-12-25T11:33:35.467Z,0.90
2022-12-25T11:36:13.669Z,1.40
2022-12-25T11:38:42.582Z,1.90
2022-12-25T11:41:12.850Z,1.90
2022-12-25T11:43:46.993Z,1.30
2022-12-25T11:46:20.513Z,2.20
2022-12-25T11:48:55.522Z,1.30
2022-12-25T11:51:28.938Z,1.90
2022-12-25T11:54:05.593Z,1.90
2022-12-25T11:56:34.533Z,1.80
2022-12-25T11:59:07.286Z,2.00
2022-12-25T12:01:42.909Z,2.00
2022-12-25T12:06:54.093Z,2.80
2022-12-25T12:09:37.233Z,1.80
2022-12-25T12:12:12.663Z,2.20
2022-12-25T12:14:49.262Z,1.90
2022-12-25T12:17:19.583Z,2.60
2022-12-25T12:19:48.475Z,2.20
2022-12-25T12:22:21.556Z,1.70
2022-12-25T12:24:56.179Z,3.20
2022-12-25T12:27:31.851Z,3.80
2022-12-25T12:30:01.423Z,4.30
2022-12-25T12:32:43.066Z,6.10
2022-12-25T12:35:19.834Z,4.40
2022-12-25T12:37:52.979Z,5.90
2022-12-25T12:40:32.581Z,6.50
2022-12-25T12:43:02.228Z,6.60
2022-12-25T12:45:34.683Z,5.90
2022-12-25T12:48:15.483Z,6.40
2022-12-25T12:50:44.449Z,6.20
2022-12-25T12:53:29.968Z,6.90
2022-12-25T12:56:10.353Z,7.50
2022-12-25T12:58:44.848Z,6.10
2022-12-25T13:01:29.962Z,6.70
2022-12-25T13:04:14.559Z,8.20
2022-12-25T13:06:52.260Z,8.30
2022-12-25T13:09:35.662Z,8.50
2022-12-25T13:12:08.611Z,8.10
2022-12-25T13:14:37.748Z,7.20
2022-12-25T13:17:08.545Z,8.70
2022-12-25T13:19:42.209Z,7.50
2022-12-25T13:22:24.356Z,7.30
2022-12-25T13:24:58.549Z,7.70
2022-12-25T13:27:30.492Z,8.00
2022-12-25T13:29:59.867Z,7.10
2022-12-25T13:32:31.868Z,5.90
2022-12-25T13:35:01.305Z,8.30
2022-12-25T13:37:31.600Z,4.60
2022-12-25T13:40:03.793Z,5.20
2022-12-25T13:42:35.624Z,3.20
2022-12-25T13:45:18.543Z,4.20
2022-12-25T13:47:53.071Z,4.50
2022-12-25T13:50:28.087Z,4.40
2022-12-25T13:53:09.679Z,5.00
2022-12-25T13:55:40.005Z,7.00
2022-12-25T13:58:22.947Z,6.50
2022-12-25T14:00:54.029Z,6.10
2022-12-25T14:03:33.301Z,6.00
2022-12-25T14:06:04.477Z,4.40
2022-12-25T14:08:35.722Z,4.60
2022-12-25T14:11:06.131Z,6.10
2022-12-25T14:13:40.129Z,6.10
2022-12-25T14:16:10.180Z,5.80
2022-12-25T14:18:49.621Z,6.00
2022-12-25T14:21:25.523Z,4.30
2022-12-25T14:26:24.726Z,4.10
2022-12-25T14:28:57.511Z,5.80
2022-12-25T14:31:29.794Z,5.10
2022-12-25T14:34:00.427Z,5.80
2022-12-25T14:36:31.005Z,6.10
2022-12-25T14:39:02.801Z,6.30
2022-12-25T14:41:37.367Z,7.10
2022-12-25T14:44:21.294Z,6.60
2022-12-25T14:46:50.153Z,7.30
2022-12-25T14:49:24.812Z,6.30
2022-12-25T14:51:53.747Z,7.40
2022-12-25T14:54:23.568Z,5.20
2022-12-25T14:56:55.505Z,7.80
2022-12-25T14:59:26.754Z,8.00
2022-12-25T15:01:58.447Z,6.90
2022-12-25T15:04:28.640Z,5.90
2022-12-25T15:06:59.837Z,5.50
2022-12-25T15:09:30.217Z,7.60
2022-12-25T15:11:59.478Z,8.60
2022-12-25T15:14:29.577Z,7.90
2022-12-25T15:17:00.735Z,7.40
2022-12-25T15:19:37.716Z,5.80
2022-12-25T15:22:09.469Z,7.90
2022-12-25T15:24:38.338Z,9.00
2022-12-25T15:27:15.431Z,6.60
2022-12-25T15:30:09.253Z,7.80
2022-12-25T15:32:33.825Z,6.80
2022-12-25T15:35:02.695Z,6.60
2022-12-25T15:37:31.643Z,6.40
2022-12-25T15:40:00.522Z,4.20
2022-12-25T15:42:29.464Z,5.30
2022-12-25T15:44:58.289Z,5.80
2022-12-25T15:47:27.198Z,5.20
2022-12-25T15:49:56.113Z,3.90
2022-12-25T15:52:24.945Z,4.10
2022-12-25T15:54:53.835Z,3.30
2022-12-25T15:57:23.738Z,4.60
2022-12-25T15:59:52.701Z,3.90
2022-12-25T16:02:22.055Z,3.40
2022-12-25T16:04:53.886Z,3.60
2022-12-25T16:07:25.252Z,3.50
2022-12-25T16:09:54.077Z,3.50
2022-12-25T16:12:22.968Z,4.30
2022-12-25T16:14:51.884Z,4.20
2022-12-25T16:17:20.790Z,3.10
2022-12-25T16:19:49.609Z,3.50
2022-12-25T16:22:22.230Z,4.90
2022-12-25T16:24:51.174Z,4.10
2022-12-25T16:27:20.113Z,3.10
2022-12-25T16:29:48.934Z,3.40
2022-12-25T16:32:18.058Z,4.60
2022-12-25T16:34:49.324Z,5.80
2022-12-25T16:37:18.257Z,4.70
2022-12-25T16:39:47.155Z,5.40
2022-12-25T16:42:16.050Z,5.60
2022-12-25T16:44:45.092Z,5.30
2022-12-25T16:47:14.022Z,5.50
2022-12-25T16:49:43.464Z,6.00
2022-12-25T16:52:12.293Z,5.20
2022-12-25T16:54:41.190Z,4.60
2022-12-25T16:57:10.009Z,4.70
2022-12-25T16:59:39.061Z,5.50
2022-12-25T17:02:09.714Z,5.00
2022-12-25T17:04:38.910Z,7.60
2022-12-25T17:07:07.802Z,7.00
2022-12-25T17:09:43.726Z,10.30
2022-12-25T17:12:13.499Z,10.20
2022-12-25T17:14:42.612Z,9.50
2022-12-25T17:17:11.465Z,10.40
2022-12-25T17:19:41.391Z,9.50
2022-12-25T17:22:10.436Z,8.20
2022-12-25T17:24:40.939Z,9.60
2022-12-25T17:27:10.829Z,9.30
2022-12-25T17:29:39.780Z,9.60
2022-12-25T17:32:10.165Z,9.50
2022-12-25T17:34:39.472Z,9.60
2022-12-25T17:37:09.017Z,10.80
2022-12-25T17:39:38.987Z,9.60
2022-12-25T17:42:07.800Z,10.70
2022-12-25T17:44:36.650Z,9.50
2022-12-25T17:47:05.774Z,10.00
2022-12-25T17:49:35.283Z,12.30
2022-12-25T17:52:04.338Z,12.20
2022-12-25T17:54:33.589Z,10.70
2022-12-25T17:57:02.863Z,9.90
2022-12-25T17:59:31.817Z,12.90
2022-12-25T18:02:00.786Z,9.20
2022-12-25T18:04:29.880Z,10.40
2022-12-25T18:06:58.838Z,10.20
2022-12-25T18:09:27.657Z,8.90
2022-12-25T18:11:56.998Z,12.40
2022-12-25T18:14:25.846Z,9.70
2022-12-25T18:16:54.861Z,11.60
2022-12-25T18:19:23.707Z,9.90
2022-12-25T18:21:52.516Z,11.50
2022-12-25T18:24:21.436Z,9.70
2022-12-25T18:26:50.339Z,11.40
2022-12-25T18:29:19.196Z,10.60
2022-12-25T18:31:48.330Z,9.30
2022-12-25T18:34:17.529Z,11.20
2022-12-25T18:36:46.420Z,13.00
2022-12-25T18:39:15.369Z,10.20
2022-12-25T18:41:58.765Z,11.40
2022-12-25T18:44:29.000Z,9.60
2022-12-25T18:46:57.849Z,11.00
2022-12-25T18:49:26.988Z,11.20
2022-12-25T18:52:47.928Z,12.00
2022-12-25T18:54:44.940Z,14.20
2022-12-25T18:57:14.005Z,12.10
2022-12-25T18:59:42.832Z,13.50
2022-12-25T19:02:12.942Z,15.90
2022-12-25T19:04:42.948Z,12.00
2022-12-25T19:07:12.354Z,12.50
2022-12-25T19:09:41.332Z,13.60
2022-12-25T19:12:10.294Z,13.80
2022-12-25T19:14:47.011Z,16.50
2022-12-25T19:17:17.937Z,15.50
2022-12-25T19:19:47.304Z,14.80
2022-12-25T19:22:16.712Z,15.70
2022-12-25T19:24:45.810Z,16.30
2022-12-25T19:27:14.649Z,14.80
2022-12-25T19:29:43.493Z,17.10
2022-12-25T19:32:12.519Z,16.90
2022-12-25T19:34:41.374Z,19.90
2022-12-25T19:37:10.273Z,18.40
2022-12-25T19:39:45.335Z,20.00
2022-12-25T19:42:15.965Z,20.50
2022-12-25T19:44:45.115Z,22.30
2022-12-25T19:47:14.001Z,18.30
2022-12-25T19:49:43.938Z,17.20
2022-12-25T19:52:14.523Z,20.30
2022-12-25T19:54:43.399Z,20.00
2022-12-25T19:57:12.265Z,23.00
2022-12-25T19:59:41.347Z,29.40
2022-12-25T20:02:11.329Z,28.60
2022-12-25T20:04:40.494Z,24.80
2022-12-25T20:07:09.319Z,29.30
2022-12-25T20:09:38.287Z,25.60
2022-12-25T20:12:09.760Z,26.50
2022-12-25T20:14:38.606Z,23.10
2022-12-25T20:17:13.657Z,24.20
2022-12-25T20:19:44.754Z,28.40
2022-12-25T20:22:13.558Z,32.80
2022-12-25T20:24:42.577Z,30.20
2022-12-25T20:27:11.419Z,31.10
2022-12-25T20:29:40.217Z,31.10
2022-12-25T20:32:09.305Z,38.00
2022-12-25T20:34:38.315Z,38.20
2022-12-25T20:37:07.135Z,38.10
2022-12-25T20:39:36.041Z,35.20
2022-12-25T20:42:05.620Z,39.10
2022-12-25T20:44:34.601Z,36.70
2022-12-25T20:47:03.467Z,42.00
2022-12-25T20:49:34.022Z,42.00
2022-12-25T20:52:05.763Z,40.10
2022-12-25T20:54:35.088Z,41.40
2022-12-25T20:57:04.129Z,41.10
2022-12-25T20:59:37.451Z,41.80
2022-12-25T21:02:09.664Z,37.60
2022-12-25T21:04:58.479Z,40.40
2022-12-25T21:07:27.393Z,42.20
2022-12-25T21:09:56.222Z,42.00
2022-12-25T21:12:25.252Z,46.00
2022-12-25T21:14:54.185Z,41.50
2022-12-25T21:17:23.023Z,40.20
2022-12-25T21:19:51.890Z,49.00
2022-12-25T21:22:20.849Z,45.10
2022-12-25T21:24:51.449Z,48.10
2022-12-25T21:27:20.279Z,43.60
2022-12-25T21:29:49.136Z,44.00
2022-12-25T21:32:36.345Z,44.60
2022-12-25T21:35:06.151Z,46.60
2022-12-25T21:37:35.091Z,47.50
2022-12-25T21:40:04.645Z,46.60
2022-12-25T21:42:33.476Z,46.40
2022-12-25T21:45:02.452Z,46.00
2022-12-25T21:48:01.582Z,43.50
2022-12-25T21:50:39.497Z,47.20
2022-12-25T21:53:08.676Z,43.30
2022-12-25T21:55:37.508Z,44.70
2022-12-25T21:58:06.343Z,39.40
2022-12-25T22:00:35.285Z,30.20
2022-12-25T22:03:04.530Z,32.20
2022-12-25T22:05:54.631Z,29.20
2022-12-25T22:08:23.443Z,30.60
2022-12-25T22:10:52.355Z,26.60
2022-12-25T22:13:39.604Z,28.40
2022-12-25T22:16:26.859Z,25.80
2022-12-25T22:19:14.035Z,30.00
2022-12-25T22:21:43.060Z,30.30
2022-12-25T22:24:11.893Z,25.90
2022-12-25T22:26:43.692Z,27.60
2022-12-25T22:29:12.498Z,29.50
2022-12-25T22:31:46.754Z,27.40
2022-12-25T22:34:16.858Z,23.60
2022-12-25T22:36:47.342Z,27.10
2022-12-25T22:39:16.474Z,26.20
2022-12-25T22:41:45.298Z,25.80
2022-12-25T22:44:17.584Z,26.30
2022-12-25T22:46:47.123Z,26.40
2022-12-25T22:49:16.320Z,27.20
2022-12-25T22:51:45.828Z,26.20
2022-12-25T22:54:15.721Z,25.20
2022-12-25T22:56:46.352Z,26.20
2022-12-25T22:59:16.908Z,25.90
2022-12-25T23:01:45.988Z,23.90
2022-12-25T23:04:14.990Z,23.90
2022-12-25T23:06:43.984Z,21.70
2022-12-25T23:09:20.553Z,23.50
2022-12-25T23:11:53.286Z,22.60
2022-12-25T23:14:40.424Z,25.20
2022-12-25T23:17:27.397Z,23.00
2022-12-25T23:20:14.754Z,23.30
2022-12-25T23:23:04.076Z,24.50
2022-12-25T23:26:00.956Z,27.00
2022-12-25T23:31:15.896Z,24.30
2022-12-25T23:33:44.737Z,20.10
2022-12-25T23:36:13.576Z,21.60
2022-12-25T23:38:42.397Z,21.00
2022-12-25T23:41:11.377Z,20.60
2022-12-25T23:43:40.217Z,19.70
2022-12-25T23:46:09.174Z,22.00
2022-12-25T23:48:38.039Z,20.90
2022-12-25T23:51:08.155Z,19.40
2022-12-25T23:53:37.034Z,19.80
2022-12-25T23:56:06.790Z,17.90
2022-12-25T23:58:35.803Z,20.30
